sensor_id;sensor_type;location;lat;lon;timestamp;P1;durP1;ratioP1;P2;durP2;ratioP2
69847;SDS011;57143;55.940;37.496;2023-04-03T00:02:14;19.17;;;6.95;;
69847;SDS011;57143;55.940;37.496;2023-04-03T00:04:41;22.63;;;6.72;;
69847;SDS011;57143;55.940;37.496;2023-04-03T00:07:10;15.80;;;7.40;;
69847;SDS011;57143;55.940;37.496;2023-04-03T00:09:37;16.90;;;6.95;;
69847;SDS011;57143;55.940;37.496;2023-04-03T00:12:04;15.13;;;6.60;;
69847;SDS011;57143;55.940;37.496;2023-04-03T00:14:32;15.75;;;7.07;;
69847;SDS011;57143;55.940;37.496;2023-04-03T00:16:59;17.45;;;7.05;;
69847;SDS011;57143;55.940;37.496;2023-04-03T00:19:26;18.23;;;7.87;;
69847;SDS011;57143;55.940;37.496;2023-04-03T00:21:53;14.20;;;6.88;;
69847;SDS011;57143;55.940;37.496;2023-04-03T00:24:22;20.00;;;7.47;;
69847;SDS011;57143;55.940;37.496;2023-04-03T00:26:49;14.30;;;7.25;;
69847;SDS011;57143;55.940;37.496;2023-04-03T00:29:16;15.32;;;7.15;;
69847;SDS011;57143;55.940;37.496;2023-04-03T00:31:43;14.70;;;6.73;;
69847;SDS011;57143;55.940;37.496;2023-04-03T00:34:10;18.73;;;6.63;;
69847;SDS011;57143;55.940;37.496;2023-04-03T00:36:37;14.52;;;6.47;;
69847;SDS011;57143;55.940;37.496;2023-04-03T00:39:04;19.50;;;6.90;;
69847;SDS011;57143;55.940;37.496;2023-04-03T00:41:33;18.42;;;7.20;;
69847;SDS011;57143;55.940;37.496;2023-04-03T00:44:00;19.07;;;7.30;;
69847;SDS011;57143;55.940;37.496;2023-04-03T00:46:27;17.67;;;8.38;;
69847;SDS011;57143;55.940;37.496;2023-04-03T00:48:54;18.75;;;8.55;;
69847;SDS011;57143;55.940;37.496;2023-04-03T00:51:22;17.35;;;9.05;;
69847;SDS011;57143;55.940;37.496;2023-04-03T00:53:51;16.20;;;7.70;;
69847;SDS011;57143;55.940;37.496;2023-04-03T00:56:25;19.40;;;9.20;;
69847;SDS011;57143;55.940;37.496;2023-04-03T00:58:56;18.98;;;8.40;;
69847;SDS011;57143;55.940;37.496;2023-04-03T01:01:28;15.65;;;7.20;;
69847;SDS011;57143;55.940;37.496;2023-04-03T01:03:56;17.55;;;7.20;;
69847;SDS011;57143;55.940;37.496;2023-04-03T01:06:26;19.25;;;7.82;;
69847;SDS011;57143;55.940;37.496;2023-04-03T01:08:56;15.77;;;8.00;;
69847;SDS011;57143;55.940;37.496;2023-04-03T01:11:24;18.83;;;8.75;;
69847;SDS011;57143;55.940;37.496;2023-04-03T01:13:51;19.42;;;8.50;;
69847;SDS011;57143;55.940;37.496;2023-04-03T01:16:20;17.80;;;7.88;;
69847;SDS011;57143;55.940;37.496;2023-04-03T01:18:47;15.27;;;7.75;;
69847;SDS011;57143;55.940;37.496;2023-04-03T01:21:38;19.00;;;9.80;;
69847;SDS011;57143;55.940;37.496;2023-04-03T01:24:32;21.52;;;9.18;;
69847;SDS011;57143;55.940;37.496;2023-04-03T01:27:02;17.90;;;8.63;;
69847;SDS011;57143;55.940;37.496;2023-04-03T01:29:31;18.50;;;8.70;;
69847;SDS011;57143;55.940;37.496;2023-04-03T01:32:00;18.95;;;9.05;;
69847;SDS011;57143;55.940;37.496;2023-04-03T01:34:28;17.47;;;8.80;;
69847;SDS011;57143;55.940;37.496;2023-04-03T01:36:57;16.58;;;7.90;;
69847;SDS011;57143;55.940;37.496;2023-04-03T01:39:24;18.33;;;8.20;;
69847;SDS011;57143;55.940;37.496;2023-04-03T01:41:51;16.75;;;8.00;;
69847;SDS011;57143;55.940;37.496;2023-04-03T01:44:19;17.98;;;8.40;;
69847;SDS011;57143;55.940;37.496;2023-04-03T01:46:46;14.97;;;7.80;;
69847;SDS011;57143;55.940;37.496;2023-04-03T01:49:14;19.15;;;8.70;;
69847;SDS011;57143;55.940;37.496;2023-04-03T01:51:41;18.92;;;8.18;;
69847;SDS011;57143;55.940;37.496;2023-04-03T01:54:09;17.70;;;8.30;;
69847;SDS011;57143;55.940;37.496;2023-04-03T01:56:36;18.00;;;8.85;;
69847;SDS011;57143;55.940;37.496;2023-04-03T01:59:04;18.57;;;8.97;;
69847;SDS011;57143;55.940;37.496;2023-04-03T02:01:31;17.50;;;7.93;;
69847;SDS011;57143;55.940;37.496;2023-04-03T02:03:58;16.98;;;8.50;;
69847;SDS011;57143;55.940;37.496;2023-04-03T02:06:27;17.92;;;8.95;;
69847;SDS011;57143;55.940;37.496;2023-04-03T02:08:54;16.27;;;7.60;;
69847;SDS011;57143;55.940;37.496;2023-04-03T02:11:21;17.87;;;7.90;;
69847;SDS011;57143;55.940;37.496;2023-04-03T02:13:48;18.67;;;7.88;;
69847;SDS011;57143;55.940;37.496;2023-04-03T02:16:15;16.95;;;8.18;;
69847;SDS011;57143;55.940;37.496;2023-04-03T02:18:42;15.45;;;7.40;;
69847;SDS011;57143;55.940;37.496;2023-04-03T02:21:09;16.42;;;7.38;;
69847;SDS011;57143;55.940;37.496;2023-04-03T02:23:38;14.07;;;6.90;;
69847;SDS011;57143;55.940;37.496;2023-04-03T02:26:06;14.05;;;7.18;;
69847;SDS011;57143;55.940;37.496;2023-04-03T02:28:35;14.30;;;7.07;;
69847;SDS011;57143;55.940;37.496;2023-04-03T02:31:02;16.35;;;7.22;;
69847;SDS011;57143;55.940;37.496;2023-04-03T02:33:31;17.48;;;8.18;;
69847;SDS011;57143;55.940;37.496;2023-04-03T02:35:58;16.43;;;8.00;;
69847;SDS011;57143;55.940;37.496;2023-04-03T02:38:26;14.82;;;6.90;;
69847;SDS011;57143;55.940;37.496;2023-04-03T02:40:55;14.88;;;6.70;;
69847;SDS011;57143;55.940;37.496;2023-04-03T02:43:27;13.68;;;7.18;;
69847;SDS011;57143;55.940;37.496;2023-04-03T02:45:54;13.10;;;7.28;;
69847;SDS011;57143;55.940;37.496;2023-04-03T02:48:21;18.50;;;7.50;;
69847;SDS011;57143;55.940;37.496;2023-04-03T02:50:49;14.18;;;7.32;;
69847;SDS011;57143;55.940;37.496;2023-04-03T02:53:17;16.10;;;7.20;;
69847;SDS011;57143;55.940;37.496;2023-04-03T02:55:44;17.25;;;8.48;;
69847;SDS011;57143;55.940;37.496;2023-04-03T02:58:13;18.13;;;8.02;;
69847;SDS011;57143;55.940;37.496;2023-04-03T03:00:41;15.97;;;7.40;;
69847;SDS011;57143;55.940;37.496;2023-04-03T03:03:09;15.20;;;8.00;;
69847;SDS011;57143;55.940;37.496;2023-04-03T03:05:36;18.15;;;8.10;;
69847;SDS011;57143;55.940;37.496;2023-04-03T03:08:03;19.67;;;8.32;;
69847;SDS011;57143;55.940;37.496;2023-04-03T03:10:30;18.02;;;8.60;;
69847;SDS011;57143;55.940;37.496;2023-04-03T03:12:57;19.40;;;7.90;;
69847;SDS011;57143;55.940;37.496;2023-04-03T03:15:26;15.50;;;7.32;;
69847;SDS011;57143;55.940;37.496;2023-04-03T03:17:53;17.60;;;7.95;;
69847;SDS011;57143;55.940;37.496;2023-04-03T03:20:20;21.75;;;8.70;;
69847;SDS011;57143;55.940;37.496;2023-04-03T03:22:47;21.00;;;8.70;;
69847;SDS011;57143;55.940;37.496;2023-04-03T03:25:15;18.93;;;8.57;;
69847;SDS011;57143;55.940;37.496;2023-04-03T03:27:42;20.33;;;7.97;;
69847;SDS011;57143;55.940;37.496;2023-04-03T03:30:09;17.23;;;8.07;;
69847;SDS011;57143;55.940;37.496;2023-04-03T03:32:38;20.52;;;8.95;;
69847;SDS011;57143;55.940;37.496;2023-04-03T03:35:06;18.95;;;8.98;;
69847;SDS011;57143;55.940;37.496;2023-04-03T03:37:33;19.77;;;8.30;;
69847;SDS011;57143;55.940;37.496;2023-04-03T03:40:00;20.23;;;8.98;;
69847;SDS011;57143;55.940;37.496;2023-04-03T03:42:29;19.58;;;8.05;;
69847;SDS011;57143;55.940;37.496;2023-04-03T03:44:56;16.73;;;8.45;;
69847;SDS011;57143;55.940;37.496;2023-04-03T03:47:23;17.50;;;8.20;;
69847;SDS011;57143;55.940;37.496;2023-04-03T03:49:52;20.03;;;7.23;;
69847;SDS011;57143;55.940;37.496;2023-04-03T03:52:19;16.88;;;7.63;;
69847;SDS011;57143;55.940;37.496;2023-04-03T03:54:46;20.00;;;7.43;;
69847;SDS011;57143;55.940;37.496;2023-04-03T03:57:13;14.75;;;7.05;;
69847;SDS011;57143;55.940;37.496;2023-04-03T03:59:40;17.60;;;8.25;;
69847;SDS011;57143;55.940;37.496;2023-04-03T04:02:09;15.63;;;7.40;;
69847;SDS011;57143;55.940;37.496;2023-04-03T04:04:36;15.10;;;7.70;;
69847;SDS011;57143;55.940;37.496;2023-04-03T04:07:05;14.98;;;7.03;;
69847;SDS011;57143;55.940;37.496;2023-04-03T04:09:32;15.23;;;6.93;;
69847;SDS011;57143;55.940;37.496;2023-04-03T04:11:59;14.68;;;6.85;;
69847;SDS011;57143;55.940;37.496;2023-04-03T04:14:26;15.27;;;6.97;;
69847;SDS011;57143;55.940;37.496;2023-04-03T04:16:53;17.05;;;7.68;;
69847;SDS011;57143;55.940;37.496;2023-04-03T04:19:20;16.98;;;7.35;;
69847;SDS011;57143;55.940;37.496;2023-04-03T04:21:48;15.25;;;7.57;;
69847;SDS011;57143;55.940;37.496;2023-04-03T04:24:16;18.33;;;8.77;;
69847;SDS011;57143;55.940;37.496;2023-04-03T04:26:43;16.87;;;7.67;;
69847;SDS011;57143;55.940;37.496;2023-04-03T04:29:11;17.15;;;8.05;;
69847;SDS011;57143;55.940;37.496;2023-04-03T04:31:38;20.92;;;9.63;;
69847;SDS011;57143;55.940;37.496;2023-04-03T04:34:05;16.88;;;9.43;;
69847;SDS011;57143;55.940;37.496;2023-04-03T04:36:32;18.65;;;8.85;;
69847;SDS011;57143;55.940;37.496;2023-04-03T04:38:59;18.10;;;8.70;;
69847;SDS011;57143;55.940;37.496;2023-04-03T04:41:28;19.08;;;9.32;;
69847;SDS011;57143;55.940;37.496;2023-04-03T04:43:55;20.83;;;9.50;;
69847;SDS011;57143;55.940;37.496;2023-04-03T04:46:22;20.25;;;9.23;;
69847;SDS011;57143;55.940;37.496;2023-04-03T04:48:49;19.95;;;9.32;;
69847;SDS011;57143;55.940;37.496;2023-04-03T04:51:16;22.07;;;9.30;;
69847;SDS011;57143;55.940;37.496;2023-04-03T04:53:44;24.00;;;9.65;;
69847;SDS011;57143;55.940;37.496;2023-04-03T04:56:11;21.83;;;10.90;;
69847;SDS011;57143;55.940;37.496;2023-04-03T04:58:39;21.75;;;9.85;;
69847;SDS011;57143;55.940;37.496;2023-04-03T05:01:07;23.25;;;10.80;;
69847;SDS011;57143;55.940;37.496;2023-04-03T05:03:35;21.47;;;10.40;;
69847;SDS011;57143;55.940;37.496;2023-04-03T05:06:02;26.25;;;10.88;;
69847;SDS011;57143;55.940;37.496;2023-04-03T05:08:30;22.95;;;10.40;;
69847;SDS011;57143;55.940;37.496;2023-04-03T05:10:58;20.67;;;9.52;;
69847;SDS011;57143;55.940;37.496;2023-04-03T05:13:25;21.00;;;10.60;;
69847;SDS011;57143;55.940;37.496;2023-04-03T05:15:53;24.87;;;9.63;;
69847;SDS011;57143;55.940;37.496;2023-04-03T05:18:20;20.83;;;9.98;;
69847;SDS011;57143;55.940;37.496;2023-04-03T05:20:48;20.58;;;10.02;;
69847;SDS011;57143;55.940;37.496;2023-04-03T05:23:15;26.95;;;10.35;;
69847;SDS011;57143;55.940;37.496;2023-04-03T05:25:43;22.23;;;10.90;;
69847;SDS011;57143;55.940;37.496;2023-04-03T05:28:12;21.43;;;10.33;;
69847;SDS011;57143;55.940;37.496;2023-04-03T05:30:39;20.35;;;9.48;;
69847;SDS011;57143;55.940;37.496;2023-04-03T05:33:08;22.23;;;10.43;;
69847;SDS011;57143;55.940;37.496;2023-04-03T05:35:36;19.77;;;9.27;;
69847;SDS011;57143;55.940;37.496;2023-04-03T05:38:04;20.40;;;10.05;;
69847;SDS011;57143;55.940;37.496;2023-04-03T05:40:31;19.20;;;9.93;;
69847;SDS011;57143;55.940;37.496;2023-04-03T05:42:59;20.85;;;9.98;;
69847;SDS011;57143;55.940;37.496;2023-04-03T05:45:26;20.40;;;9.95;;
69847;SDS011;57143;55.940;37.496;2023-04-03T05:47:53;23.30;;;10.93;;
69847;SDS011;57143;55.940;37.496;2023-04-03T05:50:21;18.40;;;9.85;;
69847;SDS011;57143;55.940;37.496;2023-04-03T05:52:49;20.77;;;10.37;;
69847;SDS011;57143;55.940;37.496;2023-04-03T05:55:19;20.40;;;9.73;;
69847;SDS011;57143;55.940;37.496;2023-04-03T05:57:46;19.40;;;10.15;;
69847;SDS011;57143;55.940;37.496;2023-04-03T06:00:14;20.67;;;9.93;;
69847;SDS011;57143;55.940;37.496;2023-04-03T06:02:42;18.83;;;9.32;;
69847;SDS011;57143;55.940;37.496;2023-04-03T06:05:09;17.23;;;9.60;;
69847;SDS011;57143;55.940;37.496;2023-04-03T06:07:39;20.80;;;10.20;;
69847;SDS011;57143;55.940;37.496;2023-04-03T06:10:07;18.60;;;8.90;;
69847;SDS011;57143;55.940;37.496;2023-04-03T06:12:35;17.60;;;9.68;;
69847;SDS011;57143;55.940;37.496;2023-04-03T06:15:02;19.55;;;9.93;;
69847;SDS011;57143;55.940;37.496;2023-04-03T06:17:30;20.57;;;8.83;;
69847;SDS011;57143;55.940;37.496;2023-04-03T06:19:57;20.30;;;10.43;;
69847;SDS011;57143;55.940;37.496;2023-04-03T06:22:24;16.92;;;8.02;;
69847;SDS011;57143;55.940;37.496;2023-04-03T06:24:56;18.40;;;8.55;;
69847;SDS011;57143;55.940;37.496;2023-04-03T06:27:23;22.10;;;8.02;;
69847;SDS011;57143;55.940;37.496;2023-04-03T06:29:50;15.77;;;8.10;;
69847;SDS011;57143;55.940;37.496;2023-04-03T06:32:17;18.92;;;8.30;;
69847;SDS011;57143;55.940;37.496;2023-04-03T06:34:45;16.45;;;7.90;;
69847;SDS011;57143;55.940;37.496;2023-04-03T06:37:13;18.02;;;8.40;;
69847;SDS011;57143;55.940;37.496;2023-04-03T06:39:42;16.17;;;8.20;;
69847;SDS011;57143;55.940;37.496;2023-04-03T06:42:10;16.03;;;8.00;;
69847;SDS011;57143;55.940;37.496;2023-04-03T06:44:38;18.63;;;8.63;;
69847;SDS011;57143;55.940;37.496;2023-04-03T06:47:05;19.75;;;9.48;;
69847;SDS011;57143;55.940;37.496;2023-04-03T06:49:33;18.08;;;8.77;;
69847;SDS011;57143;55.940;37.496;2023-04-03T06:52:02;19.83;;;9.43;;
69847;SDS011;57143;55.940;37.496;2023-04-03T06:54:30;17.53;;;8.60;;
69847;SDS011;57143;55.940;37.496;2023-04-03T06:56:57;17.60;;;8.23;;
69847;SDS011;57143;55.940;37.496;2023-04-03T06:59:26;21.33;;;9.73;;
69847;SDS011;57143;55.940;37.496;2023-04-03T07:01:53;21.67;;;10.23;;
69847;SDS011;57143;55.940;37.496;2023-04-03T07:04:20;18.27;;;9.27;;
69847;SDS011;57143;55.940;37.496;2023-04-03T07:06:47;20.03;;;9.77;;
69847;SDS011;57143;55.940;37.496;2023-04-03T07:09:14;18.52;;;8.98;;
69847;SDS011;57143;55.940;37.496;2023-04-03T07:11:42;20.33;;;9.25;;
69847;SDS011;57143;55.940;37.496;2023-04-03T07:14:09;19.48;;;9.18;;
69847;SDS011;57143;55.940;37.496;2023-04-03T07:16:37;20.45;;;9.65;;
69847;SDS011;57143;55.940;37.496;2023-04-03T07:19:04;18.53;;;9.00;;
69847;SDS011;57143;55.940;37.496;2023-04-03T07:21:33;19.77;;;9.55;;
69847;SDS011;57143;55.940;37.496;2023-04-03T07:24:01;19.80;;;9.60;;
69847;SDS011;57143;55.940;37.496;2023-04-03T07:26:28;15.48;;;8.77;;
69847;SDS011;57143;55.940;37.496;2023-04-03T07:28:55;16.75;;;8.88;;
69847;SDS011;57143;55.940;37.496;2023-04-03T07:31:22;17.30;;;8.87;;
69847;SDS011;57143;55.940;37.496;2023-04-03T07:33:51;24.58;;;9.30;;
69847;SDS011;57143;55.940;37.496;2023-04-03T07:36:19;19.77;;;7.97;;
69847;SDS011;57143;55.940;37.496;2023-04-03T07:38:47;17.00;;;8.48;;
69847;SDS011;57143;55.940;37.496;2023-04-03T07:41:15;18.25;;;8.77;;
69847;SDS011;57143;55.940;37.496;2023-04-03T07:43:45;15.27;;;8.63;;
69847;SDS011;57143;55.940;37.496;2023-04-03T07:46:15;15.57;;;8.77;;
69847;SDS011;57143;55.940;37.496;2023-04-03T07:48:43;16.80;;;8.60;;
69847;SDS011;57143;55.940;37.496;2023-04-03T07:51:11;21.88;;;8.88;;
69847;SDS011;57143;55.940;37.496;2023-04-03T07:53:40;17.20;;;8.15;;
69847;SDS011;57143;55.940;37.496;2023-04-03T07:56:07;16.47;;;7.97;;
69847;SDS011;57143;55.940;37.496;2023-04-03T07:58:34;17.15;;;8.45;;
69847;SDS011;57143;55.940;37.496;2023-04-03T08:01:02;20.35;;;8.75;;
69847;SDS011;57143;55.940;37.496;2023-04-03T08:03:30;20.52;;;8.30;;
69847;SDS011;57143;55.940;37.496;2023-04-03T08:06:01;19.25;;;7.80;;
69847;SDS011;57143;55.940;37.496;2023-04-03T08:08:31;20.73;;;8.63;;
69847;SDS011;57143;55.940;37.496;2023-04-03T08:10:58;20.73;;;8.35;;
69847;SDS011;57143;55.940;37.496;2023-04-03T08:13:28;18.10;;;8.52;;
69847;SDS011;57143;55.940;37.496;2023-04-03T08:15:55;16.92;;;8.45;;
69847;SDS011;57143;55.940;37.496;2023-04-03T08:18:24;29.50;;;9.40;;
69847;SDS011;57143;55.940;37.496;2023-04-03T08:20:51;20.17;;;7.70;;
69847;SDS011;57143;55.940;37.496;2023-04-03T08:23:19;16.35;;;8.35;;
69847;SDS011;57143;55.940;37.496;2023-04-03T08:25:47;16.90;;;8.05;;
69847;SDS011;57143;55.940;37.496;2023-04-03T08:28:14;22.63;;;8.25;;
69847;SDS011;57143;55.940;37.496;2023-04-03T08:30:42;18.40;;;8.30;;
69847;SDS011;57143;55.940;37.496;2023-04-03T08:33:09;16.87;;;8.63;;
69847;SDS011;57143;55.940;37.496;2023-04-03T08:35:40;18.23;;;8.52;;
69847;SDS011;57143;55.940;37.496;2023-04-03T08:38:07;16.25;;;7.90;;
69847;SDS011;57143;55.940;37.496;2023-04-03T08:40:34;18.75;;;7.90;;
69847;SDS011;57143;55.940;37.496;2023-04-03T08:43:06;16.73;;;8.02;;
69847;SDS011;57143;55.940;37.496;2023-04-03T08:45:53;15.67;;;7.90;;
69847;SDS011;57143;55.940;37.496;2023-04-03T08:48:22;17.73;;;8.25;;
69847;SDS011;57143;55.940;37.496;2023-04-03T08:50:54;16.45;;;8.70;;
69847;SDS011;57143;55.940;37.496;2023-04-03T08:53:25;21.42;;;8.52;;
69847;SDS011;57143;55.940;37.496;2023-04-03T08:55:57;17.13;;;8.02;;
69847;SDS011;57143;55.940;37.496;2023-04-03T08:58:30;17.73;;;7.53;;
69847;SDS011;57143;55.940;37.496;2023-04-03T09:01:03;16.00;;;7.75;;
69847;SDS011;57143;55.940;37.496;2023-04-03T09:03:32;20.05;;;7.15;;
69847;SDS011;57143;55.940;37.496;2023-04-03T09:06:05;16.90;;;7.82;;
69847;SDS011;57143;55.940;37.496;2023-04-03T09:08:37;14.73;;;7.57;;
69847;SDS011;57143;55.940;37.496;2023-04-03T09:11:12;17.83;;;8.30;;
69847;SDS011;57143;55.940;37.496;2023-04-03T09:13:49;16.25;;;7.80;;
69847;SDS011;57143;55.940;37.496;2023-04-03T09:16:25;18.80;;;8.02;;
69847;SDS011;57143;55.940;37.496;2023-04-03T09:19:02;15.05;;;7.85;;
69847;SDS011;57143;55.940;37.496;2023-04-03T09:21:39;17.27;;;7.70;;
69847;SDS011;57143;55.940;37.496;2023-04-03T09:24:08;23.80;;;8.27;;
69847;SDS011;57143;55.940;37.496;2023-04-03T09:26:40;18.77;;;8.15;;
69847;SDS011;57143;55.940;37.496;2023-04-03T09:29:12;21.02;;;8.15;;
69847;SDS011;57143;55.940;37.496;2023-04-03T09:31:44;19.95;;;8.02;;
69847;SDS011;57143;55.940;37.496;2023-04-03T09:34:15;19.13;;;8.68;;
69847;SDS011;57143;55.940;37.496;2023-04-03T09:36:49;16.77;;;7.90;;
69847;SDS011;57143;55.940;37.496;2023-04-03T09:39:20;21.35;;;8.10;;
69847;SDS011;57143;55.940;37.496;2023-04-03T09:41:55;17.75;;;8.18;;
69847;SDS011;57143;55.940;37.496;2023-04-03T09:44:28;18.40;;;7.80;;
69847;SDS011;57143;55.940;37.496;2023-04-03T09:46:56;19.73;;;8.30;;
69847;SDS011;57143;55.940;37.496;2023-04-03T09:49:24;19.17;;;8.47;;
69847;SDS011;57143;55.940;37.496;2023-04-03T09:51:51;18.20;;;7.97;;
69847;SDS011;57143;55.940;37.496;2023-04-03T09:57:10;14.77;;;7.80;;
69847;SDS011;57143;55.940;37.496;2023-04-03T09:59:42;19.23;;;8.38;;
69847;SDS011;57143;55.940;37.496;2023-04-03T10:02:23;17.40;;;7.87;;
69847;SDS011;57143;55.940;37.496;2023-04-03T10:04:58;16.75;;;7.97;;
69847;SDS011;57143;55.940;37.496;2023-04-03T10:07:26;15.77;;;7.53;;
69847;SDS011;57143;55.940;37.496;2023-04-03T10:09:56;15.80;;;7.63;;
69847;SDS011;57143;55.940;37.496;2023-04-03T10:12:24;17.27;;;7.22;;
69847;SDS011;57143;55.940;37.496;2023-04-03T10:14:56;16.80;;;7.93;;
69847;SDS011;57143;55.940;37.496;2023-04-03T10:17:32;16.73;;;7.95;;
69847;SDS011;57143;55.940;37.496;2023-04-03T10:20:18;17.48;;;7.30;;
69847;SDS011;57143;55.940;37.496;2023-04-03T10:23:00;17.60;;;8.50;;
69847;SDS011;57143;55.940;37.496;2023-04-03T10:25:40;18.77;;;8.02;;
69847;SDS011;57143;55.940;37.496;2023-04-03T10:28:11;16.97;;;8.00;;
69847;SDS011;57143;55.940;37.496;2023-04-03T10:30:48;20.83;;;8.32;;
69847;SDS011;57143;55.940;37.496;2023-04-03T10:33:26;16.95;;;7.82;;
69847;SDS011;57143;55.940;37.496;2023-04-03T10:36:07;16.65;;;7.15;;
69847;SDS011;57143;55.940;37.496;2023-04-03T10:38:43;21.08;;;8.48;;
69847;SDS011;57143;55.940;37.496;2023-04-03T10:41:21;17.93;;;8.67;;
69847;SDS011;57143;55.940;37.496;2023-04-03T10:44:00;18.45;;;8.98;;
69847;SDS011;57143;55.940;37.496;2023-04-03T10:46:36;19.20;;;8.98;;
69847;SDS011;57143;55.940;37.496;2023-04-03T10:49:14;20.20;;;8.88;;
69847;SDS011;57143;55.940;37.496;2023-04-03T10:51:53;18.35;;;9.52;;
69847;SDS011;57143;55.940;37.496;2023-04-03T10:54:29;19.53;;;10.27;;
69847;SDS011;57143;55.940;37.496;2023-04-03T10:57:04;18.65;;;9.93;;
69847;SDS011;57143;55.940;37.496;2023-04-03T10:59:35;21.50;;;9.82;;
69847;SDS011;57143;55.940;37.496;2023-04-03T11:02:11;23.48;;;10.60;;
69847;SDS011;57143;55.940;37.496;2023-04-03T11:04:44;23.70;;;10.82;;
69847;SDS011;57143;55.940;37.496;2023-04-03T11:07:18;23.60;;;11.03;;
69847;SDS011;57143;55.940;37.496;2023-04-03T11:09:48;29.10;;;10.60;;
69847;SDS011;57143;55.940;37.496;2023-04-03T11:12:19;20.92;;;9.80;;
69847;SDS011;57143;55.940;37.496;2023-04-03T11:14:51;22.02;;;10.27;;
69847;SDS011;57143;55.940;37.496;2023-04-03T11:17:28;18.42;;;9.70;;
69847;SDS011;57143;55.940;37.496;2023-04-03T11:20:01;20.83;;;10.27;;
69847;SDS011;57143;55.940;37.496;2023-04-03T11:22:33;21.75;;;10.73;;
69847;SDS011;57143;55.940;37.496;2023-04-03T11:25:08;20.55;;;10.38;;
69847;SDS011;57143;55.940;37.496;2023-04-03T11:27:46;21.23;;;9.88;;
69847;SDS011;57143;55.940;37.496;2023-04-03T11:30:18;19.58;;;10.13;;
69847;SDS011;57143;55.940;37.496;2023-04-03T11:32:53;14.47;;;7.57;;
69847;SDS011;57143;55.940;37.496;2023-04-03T11:35:28;13.32;;;8.00;;
69847;SDS011;57143;55.940;37.496;2023-04-03T11:37:56;18.98;;;8.88;;
69847;SDS011;57143;55.940;37.496;2023-04-03T11:40:28;17.77;;;7.95;;
69847;SDS011;57143;55.940;37.496;2023-04-03T11:43:03;16.73;;;8.20;;
69847;SDS011;57143;55.940;37.496;2023-04-03T11:45:37;13.77;;;7.70;;
69847;SDS011;57143;55.940;37.496;2023-04-03T11:51:40;18.30;;;7.80;;
69847;SDS011;57143;55.940;37.496;2023-04-03T12:03:34;16.63;;;8.20;;
69847;SDS011;57143;55.940;37.496;2023-04-03T12:06:42;17.42;;;8.40;;
69847;SDS011;57143;55.940;37.496;2023-04-03T12:09:25;17.38;;;8.07;;
69847;SDS011;57143;55.940;37.496;2023-04-03T12:11:54;14.07;;;6.07;;
69847;SDS011;57143;55.940;37.496;2023-04-03T12:14:22;15.03;;;6.33;;
69847;SDS011;57143;55.940;37.496;2023-04-03T12:16:52;14.20;;;5.90;;
69847;SDS011;57143;55.940;37.496;2023-04-03T12:22:15;15.23;;;6.05;;
69847;SDS011;57143;55.940;37.496;2023-04-03T12:24:46;14.05;;;5.28;;
69847;SDS011;57143;55.940;37.496;2023-04-03T12:27:25;13.40;;;5.50;;
69847;SDS011;57143;55.940;37.496;2023-04-03T12:30:11;13.50;;;6.00;;
69847;SDS011;57143;55.940;37.496;2023-04-03T12:32:46;13.75;;;5.25;;
69847;SDS011;57143;55.940;37.496;2023-04-03T12:35:26;14.10;;;6.35;;
69847;SDS011;57143;55.940;37.496;2023-04-03T12:41:19;15.87;;;6.37;;
69847;SDS011;57143;55.940;37.496;2023-04-03T12:44:01;16.67;;;6.70;;
69847;SDS011;57143;55.940;37.496;2023-04-03T12:46:42;13.60;;;6.25;;
69847;SDS011;57143;55.940;37.496;2023-04-03T12:49:14;15.80;;;5.93;;
69847;SDS011;57143;55.940;37.496;2023-04-03T12:51:54;18.25;;;6.03;;
69847;SDS011;57143;55.940;37.496;2023-04-03T12:54:22;13.27;;;5.43;;
69847;SDS011;57143;55.940;37.496;2023-04-03T12:56:59;14.60;;;6.07;;
69847;SDS011;57143;55.940;37.496;2023-04-03T12:59:35;12.48;;;5.03;;
69847;SDS011;57143;55.940;37.496;2023-04-03T13:02:08;12.88;;;5.35;;
69847;SDS011;57143;55.940;37.496;2023-04-03T13:04:44;15.20;;;5.53;;
69847;SDS011;57143;55.940;37.496;2023-04-03T13:07:20;17.73;;;5.90;;
69847;SDS011;57143;55.940;37.496;2023-04-03T13:10:01;15.43;;;5.57;;
69847;SDS011;57143;55.940;37.496;2023-04-03T13:12:31;14.20;;;5.80;;
69847;SDS011;57143;55.940;37.496;2023-04-03T13:14:59;12.55;;;6.25;;
69847;SDS011;57143;55.940;37.496;2023-04-03T13:17:29;15.02;;;6.20;;
69847;SDS011;57143;55.940;37.496;2023-04-03T13:20:11;14.47;;;5.23;;
69847;SDS011;57143;55.940;37.496;2023-04-03T13:22:47;11.63;;;5.20;;
69847;SDS011;57143;55.940;37.496;2023-04-03T13:25:17;11.65;;;5.13;;
69847;SDS011;57143;55.940;37.496;2023-04-03T13:27:47;13.40;;;5.35;;
69847;SDS011;57143;55.940;37.496;2023-04-03T13:30:22;16.33;;;6.10;;
69847;SDS011;57143;55.940;37.496;2023-04-03T13:32:53;12.50;;;5.60;;
69847;SDS011;57143;55.940;37.496;2023-04-03T13:35:26;14.68;;;5.97;;
69847;SDS011;57143;55.940;37.496;2023-04-03T13:38:05;15.18;;;5.28;;
69847;SDS011;57143;55.940;37.496;2023-04-03T13:40:48;18.10;;;6.18;;
69847;SDS011;57143;55.940;37.496;2023-04-03T13:43:17;15.00;;;5.85;;
69847;SDS011;57143;55.940;37.496;2023-04-03T13:45:56;16.67;;;5.80;;
69847;SDS011;57143;55.940;37.496;2023-04-03T13:48:26;14.05;;;6.10;;
69847;SDS011;57143;55.940;37.496;2023-04-03T13:51:01;12.70;;;5.60;;
69847;SDS011;57143;55.940;37.496;2023-04-03T13:53:31;11.18;;;5.97;;
69847;SDS011;57143;55.940;37.496;2023-04-03T13:56:13;14.73;;;6.22;;
69847;SDS011;57143;55.940;37.496;2023-04-03T13:58:52;13.37;;;5.93;;
69847;SDS011;57143;55.940;37.496;2023-04-03T14:01:32;20.30;;;6.30;;
69847;SDS011;57143;55.940;37.496;2023-04-03T14:04:10;13.23;;;6.50;;
69847;SDS011;57143;55.940;37.496;2023-04-03T14:06:39;12.18;;;6.57;;
69847;SDS011;57143;55.940;37.496;2023-04-03T14:09:08;14.98;;;6.65;;
69847;SDS011;57143;55.940;37.496;2023-04-03T14:11:35;15.30;;;6.83;;
69847;SDS011;57143;55.940;37.496;2023-04-03T14:14:05;16.73;;;6.88;;
69847;SDS011;57143;55.940;37.496;2023-04-03T14:16:39;13.07;;;6.13;;
69847;SDS011;57143;55.940;37.496;2023-04-03T14:19:10;16.25;;;7.25;;
69847;SDS011;57143;55.940;37.496;2023-04-03T14:21:45;14.50;;;6.50;;
69847;SDS011;57143;55.940;37.496;2023-04-03T14:24:13;15.13;;;7.30;;
69847;SDS011;57143;55.940;37.496;2023-04-03T14:26:41;14.15;;;6.55;;
69847;SDS011;57143;55.940;37.496;2023-04-03T14:29:10;17.88;;;6.90;;
69847;SDS011;57143;55.940;37.496;2023-04-03T14:31:39;15.68;;;7.97;;
69847;SDS011;57143;55.940;37.496;2023-04-03T14:34:07;17.98;;;8.10;;
69847;SDS011;57143;55.940;37.496;2023-04-03T14:36:36;14.20;;;8.20;;
69847;SDS011;57143;55.940;37.496;2023-04-03T14:39:04;15.55;;;8.70;;
69847;SDS011;57143;55.940;37.496;2023-04-03T14:41:33;16.05;;;8.32;;
69847;SDS011;57143;55.940;37.496;2023-04-03T14:44:00;14.25;;;8.07;;
69847;SDS011;57143;55.940;37.496;2023-04-03T14:46:28;15.70;;;7.75;;
69847;SDS011;57143;55.940;37.496;2023-04-03T14:48:57;16.20;;;8.30;;
69847;SDS011;57143;55.940;37.496;2023-04-03T14:51:25;17.83;;;8.25;;
69847;SDS011;57143;55.940;37.496;2023-04-03T14:53:52;16.15;;;9.32;;
69847;SDS011;57143;55.940;37.496;2023-04-03T14:56:21;15.82;;;8.10;;
69847;SDS011;57143;55.940;37.496;2023-04-03T14:58:54;14.77;;;8.25;;
69847;SDS011;57143;55.940;37.496;2023-04-03T15:01:24;13.60;;;7.47;;